Aeroporto :
LOGIN :

Iscrizione | Disclaimer

   EN    FR    IT 

 










Sommario :    VFR   VFR Marginale   IFR   IFR Intensivo   IFR Molto Intensivo
Visibilità : 
Base nubi : 
>= 8 km
>= 3000ft
5 / 8 km
1000 / 3000 ft
1500m / 5 km
500 / 1000 ft
800 / 1500m
200 / 500 ft
< 800m
< 200 ft
Simboli :   Temporali  Nebbia  Neve Forte  Precipitazioni Forti  Vento > 20 kt
SIGMETs :   Varie  Temporali  Ghiacco  Turbolenza  Onda orograficha  Ceneri Vulcaniche







- Altitudine del aeroporto : 461 ft
- Codice IATA : WIE


ETOU - Wiesbaden Army

ULTIMO METAR :
  • 252256Z AUTO 00000KT 9999 SCT140 11/06 A2981 RMK AO2 SLP095 T01100061 402480049 $

METARs OBSOLETI :
  • 252156Z AUTO 28004KT 9999 FEW060 BKN140 12/06 A2983 RMK AO2 SLP103 T01200061 $
  • 252056Z AUTO 28009KT 9999 OVC140 13/06 A2981 RMK AO2 SLP096 T01340058 52039 $

TAF AMD TAF ETOU
Valido dal 25 a 23 ore il 27 a 01 ore UTC


252313Z 2523/2701 VRB06KT 9999 BKN030 QNH2971INS
BECMG 2606/2607 27009KT 8000 -SHRA BKN020 610505 QNH2976INS
BECMG 2612/2613 VRB06KT 9999 NSW BKN040 QNH2984INS TX15/2614Z TN05/2604Z
Nessun NOTAM noto per questo aeroporto.



MetMap, La meteo Aeronautica in un colpo d'occhio ! - Copyright ORBIFLY Dicembre 2007 - Disclaimer

ORBIFLY MET'MAP TEAM :

Programmazione e sviluppo : Alexandra Zaïnal
Concezione e sviluppo : Baudouin d'Aumeries
Co-Programmazione e sviluppo : Marc-Olivier Méhu
Supporto tecnico e logistico : Manuel Goepfert
Aiuto per la traduzione : Arnaldo La Scala

Contatto : metmap@orbifly.com




FONTI E CREDITI :

   NOAA